Time;durP1;ratioP1;P1;durP2;ratioP2;P2;SDS_P1;SDS_P2;PMS_P1;PMS_P2;Temp;Humidity;BMP_temperature;BMP_pressure;BME280_temperature;BME280_humidity;BME280_pressure;Samples;Min_cycle;Max_cycle;Signal;HPM_P1;HPM_P2
2022/12/23 00:02:04;;;;;;;2.23;0.30;;;9.20;99.90;;;;;;5036443;28;20576;-48
2022/12/23 00:04:31;;;;;;;0.20;0.20;;;9.30;99.90;;;;;;5043180;28;20203;-48
2022/12/23 00:06:59;;;;;;;0.60;0.40;;;9.30;99.90;;;;;;5059324;28;20285;-48
2022/12/23 00:09:26;;;;;;;0.30;0.20;;;9.30;99.90;;;;;;5050618;28;20258;-49
2022/12/23 00:17:24;;;;;;;0.83;0.20;;;9.40;99.90;;;;;;5053441;28;20199;-49
2022/12/23 00:19:51;;;;;;;2.27;0.30;;;9.40;99.90;;;;;;5044379;28;20208;-49
2022/12/23 00:23:03;;;;;;;0.30;0.30;;;9.40;99.90;;;;;;5058371;28;20226;-48
2022/12/23 00:25:07;;;;;;;0.50;0.10;;;9.40;99.90;;;;;;5052806;28;20715;-49
2022/12/23 00:27:34;;;;;;;0.37;0.10;;;9.40;99.90;;;;;;5045232;28;20230;-48
2022/12/23 00:30:01;;;;;;;2.73;0.13;;;9.50;99.90;;;;;;5049185;28;20204;-49
2022/12/23 00:32:28;;;;;;;0.30;0.23;;;9.50;99.90;;;;;;5050234;28;20206;-48
2022/12/23 00:34:55;;;;;;;0.77;0.10;;;9.40;99.90;;;;;;5056062;28;20663;-48
2022/12/23 00:37:24;;;;;;;0.10;0.10;;;9.50;99.90;;;;;;5063920;28;20201;-48
2022/12/23 00:42:54;;;;;;;0.13;0.13;;;9.60;99.90;;;;;;5061392;28;20270;-49
2022/12/23 00:45:21;;;;;;;2.03;0.27;;;9.60;99.90;;;;;;5061648;28;20601;-49
2022/12/23 00:50:35;;;;;;;0.30;0.20;;;9.60;99.90;;;;;;5051080;28;20211;-48
2022/12/23 00:53:03;;;;;;;1.03;0.10;;;9.60;99.90;;;;;;5050577;28;20204;-48
2022/12/23 00:55:30;;;;;;;0.20;0.20;;;9.70;99.90;;;;;;5059399;28;20591;-48
2022/12/23 00:57:57;;;;;;;0.10;0.10;;;9.70;99.90;;;;;;5054996;28;20199;-48
2022/12/23 01:05:50;;;;;;;1.40;0.10;;;9.60;99.90;;;;;;5039783;28;20240;-48
2022/12/23 01:08:18;;;;;;;0.30;0.20;;;9.60;99.90;;;;;;5026591;28;20209;-49
2022/12/23 01:10:45;;;;;;;0.10;0.10;;;9.50;99.90;;;;;;5030773;28;20204;-48
2022/12/23 01:13:12;;;;;;;0.27;0.10;;;9.50;99.90;;;;;;5029613;28;20204;-49
2022/12/23 01:15:39;;;;;;;0.57;0.00;;;9.40;99.90;;;;;;5031235;28;20294;-49
2022/12/23 01:18:06;;;;;;;0.10;0.10;;;9.30;99.90;;;;;;5027211;28;20199;-49
2022/12/23 01:20:33;;;;;;;0.37;0.10;;;9.30;99.90;;;;;;5030118;28;20227;-48
2022/12/23 01:23:00;;;;;;;0.53;0.10;;;9.20;99.90;;;;;;5021132;28;20204;-48
2022/12/23 01:25:30;;;;;;;0.50;0.20;;;9.20;99.90;;;;;;5021195;28;20627;-48
2022/12/23 01:27:57;;;;;;;1.60;0.10;;;9.10;99.90;;;;;;5031468;28;20201;-48
2022/12/23 01:30:24;;;;;;;0.37;0.00;;;9.20;99.90;;;;;;5025449;28;20634;-48
2022/12/23 01:32:51;;;;;;;0.27;0.00;;;9.20;99.90;;;;;;5028729;28;20207;-48
2022/12/23 01:35:18;;;;;;;0.97;0.00;;;9.20;99.90;;;;;;5031096;28;20584;-48
2022/12/23 01:37:45;;;;;;;0.07;0.07;;;9.20;99.90;;;;;;5028463;28;20659;-48
2022/12/23 01:40:12;;;;;;;0.00;0.00;;;9.30;99.90;;;;;;5017922;28;20221;-48
2022/12/23 01:42:42;;;;;;;0.20;0.10;;;9.20;99.90;;;;;;5026981;28;20730;-48
2022/12/23 01:45:16;;;;;;;0.10;0.10;;;9.30;99.90;;;;;;5030992;28;20229;-49
2022/12/23 01:47:47;;;;;;;0.10;0.10;;;9.30;99.90;;;;;;5020779;28;20234;-48
2022/12/23 01:50:19;;;;;;;0.17;0.10;;;9.30;99.90;;;;;;5029335;28;20204;-48
2022/12/23 01:52:51;;;;;;;0.00;0.00;;;9.30;99.90;;;;;;5024697;28;20215;-48
2022/12/23 01:55:22;;;;;;;0.00;0.00;;;9.30;99.90;;;;;;5024203;28;20273;-48
2022/12/23 01:57:54;;;;;;;0.93;0.10;;;9.30;99.90;;;;;;5029753;28;20298;-48
2022/12/23 02:05:51;;;;;;;0.07;0.00;;;9.30;99.90;;;;;;5023239;28;20661;-48
2022/12/23 02:11:42;;;;;;;0.07;0.07;;;9.40;99.90;;;;;;5028909;28;20192;-48
2022/12/23 02:17:15;;;;;;;0.07;0.07;;;9.30;99.90;;;;;;5023494;28;20607;-48
2022/12/23 02:20:11;;;;;;;1.03;0.00;;;9.30;99.90;;;;;;5027029;28;20624;-48
2022/12/23 02:23:00;;;;;;;0.03;0.00;;;9.30;99.90;;;;;;5029863;28;20231;-52
2022/12/23 02:25:52;;;;;;;0.63;0.20;;;9.30;99.90;;;;;;5024790;28;20234;-49
2022/12/23 02:28:44;;;;;;;0.00;0.00;;;9.30;99.90;;;;;;5033196;28;20203;-49
2022/12/23 02:31:21;;;;;;;0.00;0.00;;;9.20;99.90;;;;;;5036020;28;20204;-48
2022/12/23 02:33:56;;;;;;;0.10;0.10;;;9.30;99.90;;;;;;5032102;28;20208;-49
2022/12/23 02:36:37;;;;;;;0.43;0.10;;;9.30;99.90;;;;;;5034674;28;20220;-49
2022/12/23 02:39:09;;;;;;;1.60;0.00;;;9.20;99.90;;;;;;5022669;28;20556;-49
2022/12/23 02:41:42;;;;;;;0.20;0.00;;;9.20;99.90;;;;;;5022106;28;20220;-48
2022/12/23 02:44:17;;;;;;;0.47;0.00;;;9.20;99.90;;;;;;5031341;28;20304;-48
2022/12/23 02:46:52;;;;;;;0.10;0.00;;;9.10;99.90;;;;;;5023944;28;20224;-47
2022/12/23 02:49:25;;;;;;;0.10;0.00;;;9.10;99.90;;;;;;5024104;28;20232;-48
2022/12/23 02:51:58;;;;;;;1.07;0.10;;;9.10;99.90;;;;;;5033294;28;20205;-48
2022/12/23 02:54:29;;;;;;;0.10;0.10;;;9.10;99.90;;;;;;5030334;28;20208;-48
2022/12/23 02:56:58;;;;;;;0.10;0.10;;;9.10;99.90;;;;;;5024151;28;20234;-48
2022/12/23 02:59:29;;;;;;;0.00;0.00;;;9.10;99.90;;;;;;5031080;28;20208;-48
2022/12/23 03:01:58;;;;;;;0.10;0.10;;;9.10;99.90;;;;;;5029561;28;20268;-48
2022/12/23 03:04:25;;;;;;;0.10;0.10;;;9.10;99.90;;;;;;5031336;28;20260;-48
2022/12/23 03:06:58;;;;;;;0.03;0.03;;;9.00;99.90;;;;;;5045354;28;20717;-48
2022/12/23 03:09:33;;;;;;;0.00;0.00;;;9.00;99.90;;;;;;5039278;28;20295;-48
2022/12/23 03:12:10;;;;;;;0.60;0.10;;;9.10;99.90;;;;;;5044286;28;20676;-48
2022/12/23 03:14:50;;;;;;;0.67;0.00;;;9.10;99.90;;;;;;5054113;28;20202;-48
2022/12/23 03:17:33;;;;;;;0.13;0.00;;;9.10;99.90;;;;;;5054319;28;20616;-48
2022/12/23 03:20:09;;;;;;;0.17;0.10;;;9.10;99.90;;;;;;5042246;28;20266;-48
2022/12/23 03:22:41;;;;;;;0.90;0.10;;;9.10;99.90;;;;;;5041674;28;20640;-48
2022/12/23 03:25:14;;;;;;;2.10;0.10;;;9.10;99.90;;;;;;5053602;28;20702;-49
2022/12/23 03:27:46;;;;;;;0.33;0.10;;;9.00;99.90;;;;;;5022799;28;20216;-48
2022/12/23 03:30:15;;;;;;;0.67;0.10;;;9.00;99.90;;;;;;5047595;28;20629;-49
2022/12/23 03:32:49;;;;;;;0.47;0.10;;;9.10;99.90;;;;;;5053747;28;20204;-49
2022/12/23 03:35:20;;;;;;;1.80;0.10;;;9.10;99.90;;;;;;5043081;28;20269;-48
2022/12/23 03:37:50;;;;;;;0.07;0.07;;;9.00;99.90;;;;;;5051073;28;20201;-49
2022/12/23 03:40:21;;;;;;;0.20;0.10;;;9.00;99.90;;;;;;5047828;28;20210;-49
2022/12/23 03:42:53;;;;;;;0.20;0.10;;;9.10;99.90;;;;;;5053030;28;20310;-48
2022/12/23 03:45:25;;;;;;;1.03;0.10;;;9.10;99.90;;;;;;5013767;28;20234;-48
2022/12/23 03:47:57;;;;;;;0.67;0.10;;;9.10;99.90;;;;;;5023198;28;20263;-48
2022/12/23 03:50:25;;;;;;;0.57;0.00;;;9.10;99.90;;;;;;5039120;28;20698;-48
2022/12/23 03:52:57;;;;;;;0.20;0.00;;;9.10;99.90;;;;;;5052682;28;20196;-47
2022/12/23 03:55:30;;;;;;;0.10;0.10;;;9.10;99.90;;;;;;5043428;28;20791;-49
2022/12/23 03:58:03;;;;;;;0.10;0.10;;;9.10;99.90;;;;;;5032871;28;20204;-48
2022/12/23 04:00:34;;;;;;;0.10;0.00;;;9.10;99.90;;;;;;5030709;28;20205;-48
2022/12/23 04:03:12;;;;;;;0.20;0.10;;;9.10;99.90;;;;;;5045582;28;20661;-48
2022/12/23 04:05:40;;;;;;;0.10;0.10;;;9.00;99.90;;;;;;5084138;22;20719;-51
2022/12/23 04:08:13;;;;;;;2.10;0.10;;;9.00;99.90;;;;;;5072261;28;20685;-49
2022/12/23 04:10:40;;;;;;;0.10;0.10;;;9.00;99.90;;;;;;5076761;28;20198;-49
2022/12/23 04:13:08;;;;;;;0.53;0.10;;;9.00;99.90;;;;;;5078066;28;20639;-49
2022/12/23 04:15:39;;;;;;;1.70;0.30;;;9.00;99.90;;;;;;5077136;28;20201;-49
2022/12/23 04:18:09;;;;;;;0.30;0.10;;;9.00;99.90;;;;;;5050505;28;20208;-49
2022/12/23 04:20:36;;;;;;;0.40;0.10;;;9.00;99.90;;;;;;5061036;28;20211;-49
2022/12/23 04:23:03;;;;;;;0.87;0.00;;;8.90;99.90;;;;;;5052644;28;20633;-49
2022/12/23 04:25:30;;;;;;;0.10;0.10;;;8.80;99.90;;;;;;5058027;28;20202;-49
2022/12/23 04:27:57;;;;;;;1.03;0.10;;;8.80;99.90;;;;;;5055787;28;20199;-49
2022/12/23 04:30:24;;;;;;;0.10;0.10;;;8.70;99.90;;;;;;5056698;28;20204;-48
2022/12/23 04:32:51;;;;;;;0.30;0.00;;;8.70;99.90;;;;;;5069823;28;20628;-49
2022/12/23 04:35:20;;;;;;;0.27;0.00;;;8.60;99.90;;;;;;5061485;28;20268;-49
2022/12/23 04:37:47;;;;;;;1.63;0.20;;;8.60;99.90;;;;;;5057092;28;20701;-48
2022/12/23 04:40:14;;;;;;;0.10;0.10;;;8.60;99.90;;;;;;5049177;28;20261;-49
2022/12/23 04:42:41;;;;;;;0.10;0.10;;;8.60;99.90;;;;;;5062148;28;20211;-49
2022/12/23 04:45:09;;;;;;;0.43;0.20;;;8.50;99.90;;;;;;5072536;28;20263;-49
2022/12/23 04:47:36;;;;;;;0.00;0.00;;;8.50;99.90;;;;;;5072715;28;20292;-49
2022/12/23 04:50:03;;;;;;;0.30;0.20;;;8.50;99.90;;;;;;5061164;28;20665;-49
2022/12/23 04:52:32;;;;;;;0.10;0.10;;;8.60;99.90;;;;;;5063845;28;20198;-49
2022/12/23 04:54:59;;;;;;;0.67;0.10;;;8.60;99.90;;;;;;5072463;28;20549;-49
2022/12/23 04:57:26;;;;;;;0.10;0.00;;;8.70;99.90;;;;;;5072297;28;20222;-49
2022/12/23 04:59:52;;;;;;;0.50;0.10;;;8.70;99.90;;;;;;5064100;28;20195;-49
2022/12/23 05:02:19;;;;;;;0.20;0.20;;;8.70;99.90;;;;;;5063032;28;20247;-49
2022/12/23 05:04:46;;;;;;;0.10;0.10;;;8.70;99.90;;;;;;5063710;28;20194;-49
2022/12/23 05:07:13;;;;;;;0.13;0.10;;;8.70;99.90;;;;;;5062632;28;20719;-49
2022/12/23 05:09:42;;;;;;;0.20;0.20;;;8.60;99.90;;;;;;5059937;28;20204;-49
2022/12/23 05:12:09;;;;;;;1.20;0.20;;;8.50;99.90;;;;;;5051672;28;20246;-49
2022/12/23 05:14:36;;;;;;;0.10;0.10;;;8.50;99.90;;;;;;5069069;28;20670;-49
2022/12/23 05:17:04;;;;;;;0.10;0.10;;;8.40;99.90;;;;;;5057540;28;20223;-49
2022/12/23 05:19:31;;;;;;;0.07;0.07;;;8.50;99.90;;;;;;5055825;28;20205;-49
2022/12/23 05:21:58;;;;;;;0.33;0.10;;;8.40;99.90;;;;;;5063922;28;20213;-49
2022/12/23 05:24:25;;;;;;;0.57;0.20;;;8.40;99.90;;;;;;5055261;28;20207;-49
2022/12/23 05:26:56;;;;;;;0.10;0.10;;;8.40;99.90;;;;;;5053637;28;20226;-49
2022/12/23 05:29:24;;;;;;;1.00;0.20;;;8.50;99.90;;;;;;5058671;28;20205;-49
2022/12/23 05:31:53;;;;;;;0.97;0.10;;;8.50;99.90;;;;;;5068937;28;20214;-49
2022/12/23 05:34:21;;;;;;;0.10;0.10;;;8.50;99.90;;;;;;5052004;28;20211;-49
2022/12/23 05:36:48;;;;;;;0.10;0.10;;;8.40;99.90;;;;;;5056319;28;20222;-49
2022/12/23 05:39:15;;;;;;;0.33;0.13;;;8.40;99.90;;;;;;5071824;28;20233;-49
2022/12/23 05:41:42;;;;;;;0.63;0.30;;;8.40;99.90;;;;;;5063968;28;20205;-49
2022/12/23 05:44:11;;;;;;;1.70;0.20;;;8.30;99.90;;;;;;5043064;28;20203;-49
2022/12/23 05:46:38;;;;;;;0.93;0.40;;;8.30;99.90;;;;;;5053076;28;20740;-49
2022/12/23 05:49:05;;;;;;;0.27;0.10;;;8.30;99.90;;;;;;5051910;28;20221;-49
2022/12/23 05:51:32;;;;;;;2.20;0.20;;;8.30;99.90;;;;;;5064036;28;20723;-49
2022/12/23 05:53:59;;;;;;;0.93;0.17;;;8.30;99.90;;;;;;5067683;28;20204;-48
2022/12/23 05:56:26;;;;;;;0.27;0.20;;;8.30;99.90;;;;;;5047601;28;20221;-49
2022/12/23 05:58:53;;;;;;;3.20;1.30;;;8.40;99.90;;;;;;5047350;28;20203;-49
2022/12/23 06:01:22;;;;;;;1.80;0.30;;;8.40;99.90;;;;;;5059133;28;20206;-48
2022/12/23 06:03:49;;;;;;;0.40;0.10;;;8.40;99.90;;;;;;5054247;28;20258;-49
2022/12/23 06:06:16;;;;;;;0.37;0.20;;;8.50;99.90;;;;;;5062932;28;20234;-49
2022/12/23 06:08:43;;;;;;;0.43;0.10;;;8.50;99.90;;;;;;5069627;28;20210;-49
2022/12/23 06:11:10;;;;;;;1.37;0.10;;;8.50;99.90;;;;;;5065023;28;20199;-49
2022/12/23 06:13:37;;;;;;;0.20;0.20;;;8.50;99.90;;;;;;5051244;28;20703;-48
2022/12/23 06:16:04;;;;;;;1.23;0.30;;;8.60;99.90;;;;;;5050820;28;20218;-49
2022/12/23 06:18:32;;;;;;;2.00;0.17;;;8.60;99.90;;;;;;5054068;28;20200;-50
2022/12/23 06:20:59;;;;;;;0.37;0.17;;;8.50;99.90;;;;;;5055116;28;20203;-50
2022/12/23 06:23:27;;;;;;;0.27;0.20;;;8.50;99.90;;;;;;5055654;28;20739;-50
2022/12/23 06:25:59;;;;;;;2.43;0.20;;;8.50;99.90;;;;;;5068190;28;20229;-50
2022/12/23 06:28:26;;;;;;;1.83;0.30;;;8.50;99.90;;;;;;5059485;28;20227;-50
2022/12/23 06:30:54;;;;;;;1.33;0.23;;;8.50;99.90;;;;;;5055172;28;20199;-50
2022/12/23 06:33:21;;;;;;;0.40;0.10;;;8.40;99.90;;;;;;5052764;28;20234;-51
2022/12/23 06:35:49;;;;;;;1.27;0.10;;;8.40;99.90;;;;;;5063049;28;20230;-51
2022/12/23 06:38:16;;;;;;;1.27;0.30;;;8.40;99.90;;;;;;5062378;28;20214;-51
2022/12/23 06:40:43;;;;;;;1.93;0.30;;;8.40;99.90;;;;;;5063845;28;20258;-50
2022/12/23 06:43:12;;;;;;;0.20;0.20;;;8.30;99.90;;;;;;5059487;28;20228;-49
2022/12/23 06:45:39;;;;;;;0.53;0.40;;;8.40;99.90;;;;;;5062815;28;20289;-49
2022/12/23 06:48:06;;;;;;;0.87;0.53;;;8.40;99.90;;;;;;5054702;28;20241;-49
2022/12/23 06:50:34;;;;;;;0.70;0.13;;;8.40;99.90;;;;;;5053621;28;20204;-49
2022/12/23 06:53:02;;;;;;;0.77;0.10;;;8.40;99.90;;;;;;5053125;28;20220;-49
2022/12/23 06:55:29;;;;;;;0.97;0.20;;;8.40;99.90;;;;;;5054772;28;20211;-48
2022/12/23 06:57:56;;;;;;;0.53;0.20;;;8.40;99.90;;;;;;5057539;28;20662;-49
2022/12/23 07:00:24;;;;;;;0.23;0.20;;;8.40;99.90;;;;;;5054124;28;20197;-49
2022/12/23 07:02:53;;;;;;;0.10;0.10;;;8.40;99.90;;;;;;5052391;28;20220;-49
2022/12/23 07:05:20;;;;;;;0.50;0.10;;;8.40;99.90;;;;;;5048697;28;20208;-49
2022/12/23 07:07:48;;;;;;;1.73;0.30;;;8.40;99.90;;;;;;5055025;28;20333;-49
2022/12/23 07:10:16;;;;;;;0.60;0.60;;;8.40;99.90;;;;;;5049083;28;20255;-49
2022/12/23 07:12:43;;;;;;;1.13;0.20;;;8.30;99.90;;;;;;5044996;28;20695;-48
2022/12/23 07:15:11;;;;;;;1.03;0.27;;;8.30;99.90;;;;;;5053849;28;20255;-48
2022/12/23 07:17:38;;;;;;;0.40;0.40;;;8.30;99.90;;;;;;5055165;28;20760;-49
2022/12/23 07:20:06;;;;;;;0.57;0.50;;;8.20;99.90;;;;;;5052060;28;20682;-49
2022/12/23 07:22:33;;;;;;;1.00;0.20;;;8.30;99.90;;;;;;5063866;28;20596;-49
2022/12/23 07:25:00;;;;;;;1.60;0.40;;;8.20;99.90;;;;;;5060783;28;20263;-49
2022/12/23 07:27:28;;;;;;;1.27;0.30;;;8.20;99.90;;;;;;5064634;28;20288;-49
2022/12/23 07:29:55;;;;;;;1.57;0.30;;;8.20;99.90;;;;;;5051420;28;20260;-49
2022/12/23 07:32:22;;;;;;;1.93;0.30;;;8.20;99.90;;;;;;5065778;28;20666;-49
2022/12/23 07:34:49;;;;;;;0.93;0.40;;;8.10;99.90;;;;;;5053935;28;20261;-49
2022/12/23 07:37:16;;;;;;;0.30;0.30;;;8.20;99.90;;;;;;5067480;28;20273;-51
2022/12/23 07:39:43;;;;;;;2.00;0.30;;;8.20;99.90;;;;;;5065746;28;20256;-49
2022/12/23 07:42:11;;;;;;;1.67;0.40;;;8.30;99.90;;;;;;5059344;28;20207;-49
2022/12/23 07:44:40;;;;;;;6.23;0.53;;;8.30;99.90;;;;;;5065193;28;20711;-49
2022/12/23 07:47:07;;;;;;;1.43;0.30;;;8.30;99.90;;;;;;5066813;28;20270;-49
2022/12/23 07:49:34;;;;;;;0.77;0.30;;;8.30;99.90;;;;;;5054015;28;20226;-48
2022/12/23 07:52:01;;;;;;;0.17;0.17;;;8.30;99.90;;;;;;5048734;28;20674;-49
2022/12/23 07:54:28;;;;;;;0.47;0.30;;;8.30;99.90;;;;;;5051770;28;20262;-49
2022/12/23 07:56:56;;;;;;;0.40;0.27;;;8.30;99.90;;;;;;5050840;28;20268;-49
2022/12/23 07:59:25;;;;;;;1.10;0.40;;;8.30;99.90;;;;;;5053648;28;20724;-48
2022/12/23 08:01:55;;;;;;;0.47;0.30;;;8.30;99.90;;;;;;5063662;28;20206;-49
2022/12/23 08:04:22;;;;;;;0.80;0.40;;;8.40;99.90;;;;;;5068196;28;20219;-49
2022/12/23 08:06:49;;;;;;;0.80;0.30;;;8.40;99.90;;;;;;5060465;28;20246;-49
2022/12/23 08:09:16;;;;;;;0.40;0.40;;;8.40;99.90;;;;;;5058699;28;20613;-49
2022/12/23 08:11:44;;;;;;;1.47;0.30;;;8.40;99.90;;;;;;5062166;28;20203;-48
2022/12/23 08:14:11;;;;;;;1.50;0.20;;;8.50;99.90;;;;;;5042864;28;20208;-49
2022/12/23 08:16:39;;;;;;;0.80;0.30;;;8.50;99.90;;;;;;5045545;28;20456;-47
2022/12/23 08:19:07;;;;;;;0.97;0.20;;;8.50;99.90;;;;;;5054403;28;20200;-49
2022/12/23 08:21:34;;;;;;;2.63;0.40;;;8.60;99.90;;;;;;5052756;28;20253;-49
2022/12/23 08:24:01;;;;;;;0.53;0.40;;;8.70;99.90;;;;;;5063048;28;20222;-49
2022/12/23 08:26:28;;;;;;;0.20;0.20;;;8.70;99.90;;;;;;5067629;28;20230;-49
2022/12/23 08:28:56;;;;;;;0.20;0.13;;;8.60;99.90;;;;;;5049927;28;20643;-50
2022/12/23 08:31:26;;;;;;;0.40;0.30;;;8.60;99.90;;;;;;5060064;28;20203;-51
2022/12/23 08:33:55;;;;;;;0.30;0.20;;;8.60;99.90;;;;;;5050052;28;20246;-51
2022/12/23 08:36:26;;;;;;;0.30;0.10;;;8.70;99.90;;;;;;5065589;28;20227;-50
2022/12/23 08:38:54;;;;;;;1.53;0.30;;;8.60;99.90;;;;;;5059287;28;20201;-50
2022/12/23 08:41:24;;;;;;;2.97;0.43;;;8.60;99.90;;;;;;5062679;28;20617;-51
2022/12/23 08:43:51;;;;;;;1.60;0.70;;;8.60;99.90;;;;;;5059901;28;20726;-50
2022/12/23 08:46:19;;;;;;;0.87;0.43;;;8.60;99.90;;;;;;5067226;28;20227;-50
2022/12/23 08:48:46;;;;;;;3.13;0.50;;;8.70;99.90;;;;;;5063571;28;20265;-50
2022/12/23 08:51:15;;;;;;;1.20;0.40;;;8.70;99.90;;;;;;5057112;28;20623;-50
2022/12/23 08:53:44;;;;;;;2.40;0.50;;;8.80;99.90;;;;;;5048946;28;20214;-50
2022/12/23 08:56:13;;;;;;;1.00;0.30;;;8.70;99.90;;;;;;5058245;28;20312;-50
2022/12/23 08:58:42;;;;;;;0.30;0.20;;;8.70;99.90;;;;;;5052278;28;20202;-50
2022/12/23 09:01:11;;;;;;;3.63;0.30;;;8.80;99.90;;;;;;5055317;28;20704;-49
2022/12/23 09:03:39;;;;;;;0.87;0.30;;;8.80;99.90;;;;;;5062214;28;20209;-50
2022/12/23 09:06:07;;;;;;;0.53;0.50;;;8.80;99.90;;;;;;5069295;28;20238;-49
2022/12/23 09:08:35;;;;;;;1.40;0.20;;;8.80;99.90;;;;;;5051649;28;20203;-50
2022/12/23 09:11:03;;;;;;;0.60;0.40;;;8.80;99.90;;;;;;5051079;28;20208;-51
2022/12/23 09:13:31;;;;;;;3.40;0.80;;;8.70;99.90;;;;;;5047433;28;20680;-51
2022/12/23 09:15:58;;;;;;;0.53;0.30;;;8.70;99.90;;;;;;5062829;28;20244;-51
2022/12/23 09:18:25;;;;;;;2.20;0.40;;;8.70;99.90;;;;;;5053336;28;20211;-51
2022/12/23 09:20:57;;;;;;;0.97;0.33;;;8.70;99.90;;;;;;5055626;28;20222;-51
2022/12/23 09:23:24;;;;;;;0.90;0.70;;;8.70;99.90;;;;;;5055013;28;20459;-50
2022/12/23 09:25:51;;;;;;;0.33;0.30;;;8.70;99.90;;;;;;5063082;28;20245;-49
2022/12/23 09:28:20;;;;;;;0.37;0.37;;;8.70;99.90;;;;;;5066693;28;20202;-50
2022/12/23 09:30:47;;;;;;;1.90;0.50;;;8.60;99.90;;;;;;5063256;28;20203;-49
2022/12/23 09:33:14;;;;;;;1.27;0.43;;;8.60;99.90;;;;;;5065147;28;20204;-50
2022/12/23 09:35:41;;;;;;;1.70;0.30;;;8.70;99.90;;;;;;5061023;28;20199;-50
2022/12/23 09:38:08;;;;;;;0.40;0.23;;;8.60;99.90;;;;;;5062523;28;20204;-51
2022/12/23 09:40:38;;;;;;;3.20;0.40;;;8.70;99.90;;;;;;5068705;28;20247;-49
2022/12/23 09:43:15;;;;;;;0.20;0.20;;;8.70;99.90;;;;;;5071466;28;20212;-50
2022/12/23 09:45:59;;;;;;;0.87;0.63;;;8.70;99.90;;;;;;5071505;28;20199;-51
2022/12/23 09:48:29;;;;;;;1.07;0.33;;;8.70;99.90;;;;;;5060799;28;20651;-49
2022/12/23 09:50:56;;;;;;;0.93;0.60;;;8.70;99.90;;;;;;5031906;28;20576;-51
2022/12/23 09:53:31;;;;;;;2.40;0.50;;;8.70;99.90;;;;;;5033704;28;20203;-49
2022/12/23 09:56:06;;;;;;;0.30;0.20;;;8.70;99.90;;;;;;5035659;28;20234;-49
2022/12/23 09:58:43;;;;;;;1.13;0.40;;;8.70;99.90;;;;;;5052781;28;20209;-50
2022/12/23 10:01:19;;;;;;;0.53;0.30;;;8.80;99.90;;;;;;5069165;28;20252;-50
2022/12/23 10:04:27;;;;;;;0.93;0.30;;;8.90;99.90;;;;;;5075293;28;20313;-50
2022/12/23 10:07:18;;;;;;;2.67;0.43;;;8.90;99.90;;;;;;5051644;22;21194;-48
2022/12/23 10:09:48;;;;;;;5.10;1.43;;;8.90;99.90;;;;;;5052320;28;20209;-48
2022/12/23 10:12:23;;;;;;;0.70;0.40;;;8.90;99.90;;;;;;5048102;28;20208;-48
2022/12/23 10:14:52;;;;;;;1.90;0.23;;;8.90;99.90;;;;;;5035481;28;20737;-48
2022/12/23 10:17:28;;;;;;;1.90;0.20;;;9.00;99.90;;;;;;5040729;28;20756;-48
2022/12/23 10:20:00;;;;;;;0.47;0.20;;;9.10;99.90;;;;;;5055187;28;20250;-48
2022/12/23 10:22:37;;;;;;;1.73;0.30;;;9.20;99.90;;;;;;5055134;28;20265;-48
2022/12/23 10:25:13;;;;;;;0.93;0.40;;;9.20;99.90;;;;;;5054940;28;20227;-48
2022/12/23 10:27:41;;;;;;;1.37;0.50;;;9.30;99.90;;;;;;5051231;28;20271;-49
2022/12/23 10:30:13;;;;;;;0.40;0.30;;;9.30;99.90;;;;;;5055043;28;20200;-49
2022/12/23 10:32:57;;;;;;;1.17;0.10;;;9.30;99.90;;;;;;5054994;28;20253;-48
2022/12/23 10:35:45;;;;;;;1.33;0.27;;;9.30;99.90;;;;;;5054814;28;20231;-48
2022/12/23 10:38:31;;;;;;;0.83;0.20;;;9.20;99.90;;;;;;5054228;28;20235;-48
2022/12/23 10:41:05;;;;;;;1.10;0.40;;;9.30;99.90;;;;;;5035899;28;20208;-48
2022/12/23 10:43:45;;;;;;;0.43;0.20;;;9.30;99.90;;;;;;5049998;28;20273;-48
2022/12/23 10:46:21;;;;;;;0.90;0.17;;;9.40;99.90;;;;;;5053258;28;20247;-48
2022/12/23 10:49:00;;;;;;;1.30;0.50;;;9.40;99.90;;;;;;5054635;28;20608;-48
2022/12/23 10:51:32;;;;;;;0.97;0.40;;;9.40;99.90;;;;;;5053308;28;20250;-48
2022/12/23 10:54:04;;;;;;;0.57;0.30;;;9.30;99.90;;;;;;5046598;28;20246;-48
2022/12/23 10:56:31;;;;;;;0.33;0.30;;;9.40;99.90;;;;;;5054443;28;20258;-48
2022/12/23 10:59:00;;;;;;;0.87;0.40;;;9.40;99.90;;;;;;5054710;28;20634;-48
2022/12/23 11:01:29;;;;;;;1.63;0.40;;;9.40;99.90;;;;;;5054332;28;20688;-48
2022/12/23 11:04:06;;;;;;;9.40;3.93;;;9.40;99.90;;;;;;5052796;28;20261;-48
2022/12/23 11:06:38;;;;;;;0.97;0.30;;;9.40;99.90;;;;;;5053995;28;20721;-49
2022/12/23 11:09:06;;;;;;;1.30;0.30;;;9.30;99.90;;;;;;5054339;28;20204;-48
2022/12/23 11:11:57;;;;;;;0.40;0.40;;;9.30;99.90;;;;;;5054389;28;20201;-48
2022/12/23 11:14:33;;;;;;;0.53;0.20;;;9.30;99.90;;;;;;5054233;28;20261;-48
2022/12/23 11:17:00;;;;;;;2.00;0.33;;;9.30;99.90;;;;;;5053820;28;20223;-48
2022/12/23 11:19:47;;;;;;;2.77;0.30;;;9.30;99.90;;;;;;5035135;28;20668;-48
2022/12/23 11:22:24;;;;;;;0.17;0.17;;;9.30;99.90;;;;;;5039539;28;20290;-48
2022/12/23 11:24:51;;;;;;;1.67;0.30;;;9.30;99.90;;;;;;5043711;28;20998;-48
2022/12/23 11:27:19;;;;;;;3.77;0.40;;;9.40;99.90;;;;;;5049789;28;20230;-48
2022/12/23 11:29:52;;;;;;;0.33;0.33;;;9.30;99.90;;;;;;5042537;28;20216;-49
2022/12/23 11:32:23;;;;;;;1.50;0.30;;;9.30;99.90;;;;;;5035767;28;20201;-48
2022/12/23 11:34:54;;;;;;;1.50;0.30;;;9.30;99.90;;;;;;5053254;28;20198;-48
2022/12/23 11:37:32;;;;;;;1.43;0.47;;;9.20;99.90;;;;;;5041915;28;20228;-48
2022/12/23 11:39:59;;;;;;;1.13;0.30;;;9.20;99.90;;;;;;5033644;28;20204;-48
2022/12/23 11:42:30;;;;;;;0.60;0.30;;;9.20;99.90;;;;;;5035337;28;20282;-48
2022/12/23 11:44:59;;;;;;;2.20;0.40;;;9.10;99.90;;;;;;5029761;28;20624;-47
2022/12/23 11:47:34;;;;;;;0.90;0.20;;;9.00;99.90;;;;;;5044070;28;20224;-48
2022/12/23 11:50:16;;;;;;;1.03;0.30;;;9.10;99.90;;;;;;5038283;28;20203;-48
2022/12/23 11:52:50;;;;;;;1.07;0.50;;;9.00;99.90;;;;;;5053695;28;20203;-48
2022/12/23 11:55:25;;;;;;;1.83;0.50;;;9.10;99.90;;;;;;5051102;28;20222;-47
2022/12/23 11:57:52;;;;;;;1.50;0.50;;;9.10;99.90;;;;;;5044429;28;20227;-49
2022/12/23 12:00:21;;;;;;;3.70;0.97;;;9.10;99.90;;;;;;5053269;28;20204;-49
2022/12/23 12:02:52;;;;;;;0.57;0.57;;;9.10;99.90;;;;;;5052971;28;20207;-49
2022/12/23 12:05:25;;;;;;;0.83;0.40;;;9.00;99.90;;;;;;5053492;28;20685;-48
2022/12/23 12:07:52;;;;;;;1.80;0.97;;;9.10;99.90;;;;;;5042381;28;20305;-48
2022/12/23 12:10:23;;;;;;;3.20;0.60;;;9.10;99.90;;;;;;5051922;28;20246;-47
2022/12/23 12:12:53;;;;;;;0.90;0.30;;;9.10;99.90;;;;;;5052067;28;20207;-48
2022/12/23 12:15:30;;;;;;;4.63;0.73;;;9.10;99.90;;;;;;5046019;28;20222;-48
2022/12/23 12:17:59;;;;;;;0.40;0.40;;;9.20;99.90;;;;;;5012170;28;20438;-48
2022/12/23 12:20:31;;;;;;;0.50;0.50;;;9.10;99.90;;;;;;5029286;28;20247;-48
2022/12/23 12:23:02;;;;;;;0.67;0.40;;;9.20;99.90;;;;;;5041505;28;20681;-48
2022/12/23 12:25:39;;;;;;;2.97;0.47;;;9.20;99.90;;;;;;5051639;28;20226;-48
2022/12/23 12:28:13;;;;;;;2.70;1.00;;;9.30;99.90;;;;;;5030897;28;20727;-48
2022/12/23 12:30:46;;;;;;;2.87;0.40;;;9.30;99.90;;;;;;5044711;28;20213;-48
2022/12/23 12:33:17;;;;;;;1.43;0.50;;;9.30;99.90;;;;;;5044043;28;20221;-48
2022/12/23 12:35:49;;;;;;;0.53;0.40;;;9.30;99.90;;;;;;5051729;28;20202;-48
2022/12/23 12:38:21;;;;;;;1.20;0.27;;;9.40;99.90;;;;;;5051826;28;20255;-48
2022/12/23 12:40:52;;;;;;;1.90;0.20;;;9.40;99.90;;;;;;5052218;28;20206;-48
2022/12/23 12:43:26;;;;;;;3.20;0.27;;;9.40;99.90;;;;;;5052495;28;20564;-48
2022/12/23 12:46:06;;;;;;;0.30;0.20;;;9.40;99.90;;;;;;5043118;28;20217;-48
2022/12/23 12:48:41;;;;;;;0.67;0.47;;;9.30;99.90;;;;;;5052938;28;20199;-48
2022/12/23 12:51:18;;;;;;;0.40;0.23;;;9.30;99.90;;;;;;5059968;28;20200;-49
2022/12/23 12:53:59;;;;;;;1.17;0.37;;;9.30;99.90;;;;;;5060316;28;20215;-50
2022/12/23 12:56:33;;;;;;;1.07;0.30;;;9.40;99.90;;;;;;5057223;28;20228;-49
2022/12/23 12:59:00;;;;;;;0.40;0.30;;;9.40;99.90;;;;;;5044080;28;20204;-49
2022/12/23 13:01:39;;;;;;;1.83;0.33;;;9.30;99.90;;;;;;5060314;28;20203;-49
2022/12/23 13:04:41;;;;;;;0.50;0.30;;;9.40;99.90;;;;;;5048918;28;20214;-49
2022/12/23 13:07:19;;;;;;;0.57;0.30;;;9.40;99.90;;;;;;4992642;28;1415972;-48
2022/12/23 13:09:53;;;;;;;1.80;0.33;;;9.40;99.90;;;;;;5060347;28;20221;-48
2022/12/23 13:12:28;;;;;;;2.57;0.50;;;9.40;99.90;;;;;;5070892;28;20227;-48
2022/12/23 13:15:05;;;;;;;1.17;0.40;;;9.30;99.90;;;;;;5053182;28;20192;-48
2022/12/23 13:17:37;;;;;;;0.30;0.30;;;9.30;99.90;;;;;;5051560;28;20215;-48
2022/12/23 13:20:17;;;;;;;0.90;0.40;;;9.40;99.90;;;;;;5051702;28;20990;-48
2022/12/23 13:22:49;;;;;;;0.50;0.33;;;9.40;99.90;;;;;;5056812;28;20202;-48
2022/12/23 13:25:20;;;;;;;1.40;0.43;;;9.40;99.90;;;;;;5060131;28;20238;-48
2022/12/23 13:27:56;;;;;;;0.27;0.27;;;9.40;99.90;;;;;;5070160;28;20229;-48
2022/12/23 13:30:25;;;;;;;0.73;0.30;;;9.50;99.90;;;;;;5071778;28;20206;-48
2022/12/23 13:33:07;;;;;;;2.00;0.40;;;9.50;99.90;;;;;;5066707;28;20304;-48
2022/12/23 13:35:54;;;;;;;0.43;0.40;;;9.50;99.90;;;;;;5060274;28;20207;-49
2022/12/23 13:38:38;;;;;;;0.43;0.43;;;9.50;99.90;;;;;;5065586;28;20231;-49
2022/12/23 13:41:12;;;;;;;1.90;0.73;;;9.50;99.90;;;;;;5047537;28;20261;-48
2022/12/23 13:43:44;;;;;;;2.10;0.40;;;9.40;99.90;;;;;;5053728;28;20582;-48
2022/12/23 13:46:21;;;;;;;1.53;0.40;;;9.50;99.90;;;;;;5071401;28;20452;-48